createdAt,value
2019-05-28T00:00:10.899Z,98.20
2019-05-28T00:02:39.913Z,98.10
2019-05-28T00:05:09.702Z,97.90
2019-05-28T00:07:38.367Z,97.80
2019-05-28T00:10:07.968Z,97.90
2019-05-28T00:12:37.028Z,98.00
2019-05-28T00:15:07.281Z,98.10
2019-05-28T00:17:35.781Z,98.20
2019-05-28T00:20:06.372Z,98.00
2019-05-28T00:22:34.921Z,98.10
2019-05-28T00:25:04.157Z,98.10
2019-05-28T00:27:32.695Z,98.10
2019-05-28T00:30:18.144Z,98.10
2019-05-28T00:32:31.638Z,98.10
2019-05-28T00:35:00.185Z,98.10
2019-05-28T00:37:29.093Z,98.10
2019-05-28T00:39:57.574Z,98.00
2019-05-28T00:42:26.252Z,98.00
2019-05-28T00:44:54.798Z,98.10
2019-05-28T00:47:23.277Z,98.00
2019-05-28T00:49:52.207Z,97.90
2019-05-28T00:52:21.000Z,97.80
2019-05-28T00:54:49.577Z,97.60
2019-05-28T00:57:19.065Z,97.40
2019-05-28T00:59:49.073Z,96.80
2019-05-28T01:02:17.999Z,96.30
2019-05-28T01:04:46.506Z,96.30
2019-05-28T01:07:15.066Z,96.30
2019-05-28T01:09:43.550Z,96.20
2019-05-28T01:12:12.045Z,96.30
2019-05-28T01:14:40.594Z,96.30
2019-05-28T01:17:09.131Z,96.30
2019-05-28T01:19:37.612Z,96.40
2019-05-28T01:22:06.545Z,96.30
2019-05-28T01:24:35.090Z,96.30
2019-05-28T01:27:03.571Z,96.30
2019-05-28T01:29:32.495Z,96.20
2019-05-28T01:32:01.017Z,96.10
2019-05-28T01:34:29.519Z,96.30
2019-05-28T01:36:58.350Z,96.70
2019-05-28T01:39:26.847Z,97.00
2019-05-28T01:41:55.556Z,97.30
2019-05-28T01:44:24.120Z,97.30
2019-05-28T01:46:52.670Z,97.40
2019-05-28T01:49:21.176Z,97.60
2019-05-28T01:51:49.709Z,97.60
2019-05-28T01:54:18.197Z,97.90
2019-05-28T01:56:46.778Z,98.10
2019-05-28T01:59:15.679Z,98.10
2019-05-28T02:01:44.148Z,98.10
2019-05-28T02:04:12.618Z,98.10
2019-05-28T02:06:41.431Z,97.90
2019-05-28T02:09:10.274Z,97.70
2019-05-28T02:11:38.721Z,97.80
2019-05-28T02:14:07.874Z,97.90
2019-05-28T02:16:36.718Z,97.80
2019-05-28T02:19:05.543Z,97.70
2019-05-28T02:21:34.454Z,97.70
2019-05-28T02:24:03.254Z,98.00
2019-05-28T02:26:31.830Z,98.30
2019-05-28T02:29:00.378Z,98.50
2019-05-28T02:31:28.942Z,98.50
2019-05-28T02:33:57.493Z,98.70
2019-05-28T02:36:26.362Z,98.50
2019-05-28T02:38:55.375Z,98.50
2019-05-28T02:41:24.268Z,98.40
2019-05-28T02:43:52.820Z,98.40
2019-05-28T02:46:21.325Z,98.60
2019-05-28T02:48:49.881Z,98.90
2019-05-28T02:51:18.986Z,99.20
2019-05-28T02:53:47.751Z,99.40
2019-05-28T02:56:18.504Z,99.50
2019-05-28T02:58:49.023Z,99.70
2019-05-28T03:01:20.092Z,99.70
2019-05-28T03:03:50.174Z,99.70
2019-05-28T03:06:21.486Z,99.60
2019-05-28T03:08:52.678Z,99.80
2019-05-28T03:11:21.162Z,99.80
2019-05-28T03:13:49.717Z,99.80
2019-05-28T03:16:21.355Z,99.80
2019-05-28T03:18:53.559Z,99.80
2019-05-28T03:21:23.743Z,99.80
2019-05-28T03:23:54.308Z,99.80
2019-05-28T03:26:23.744Z,99.80
2019-05-28T03:28:52.641Z,99.80
2019-05-28T03:31:21.770Z,99.80
2019-05-28T03:33:50.311Z,99.70
2019-05-28T03:36:21.655Z,99.70
2019-05-28T03:38:51.787Z,99.60
2019-05-28T03:41:20.274Z,99.60
2019-05-28T03:43:48.782Z,99.70
2019-05-28T03:46:17.314Z,99.70
2019-05-28T03:48:45.774Z,99.60
2019-05-28T03:51:17.421Z,99.60
2019-05-28T03:53:45.958Z,99.50
2019-05-28T03:56:14.522Z,99.50
2019-05-28T03:58:43.013Z,99.50
2019-05-28T04:01:11.578Z,99.60
2019-05-28T04:03:40.128Z,99.60
2019-05-28T04:06:08.676Z,99.70
2019-05-28T04:08:37.218Z,99.80
2019-05-28T04:11:05.707Z,99.80
2019-05-28T04:13:34.257Z,99.80
2019-05-28T04:16:02.787Z,99.80
2019-05-28T04:18:31.342Z,99.80
2019-05-28T04:20:59.831Z,99.80
2019-05-28T04:23:28.306Z,99.80
2019-05-28T04:25:56.863Z,99.80
2019-05-28T04:28:25.338Z,99.80
2019-05-28T04:30:53.959Z,99.80
2019-05-28T04:33:22.903Z,99.80
2019-05-28T04:35:51.379Z,99.80
2019-05-28T04:38:19.945Z,99.80
2019-05-28T04:40:48.492Z,99.80
2019-05-28T04:43:16.956Z,99.80
2019-05-28T04:45:45.425Z,99.70
2019-05-28T04:48:13.928Z,99.70
2019-05-28T04:50:42.416Z,99.70
2019-05-28T04:53:11.029Z,99.50
2019-05-28T04:55:39.508Z,99.20
2019-05-28T04:58:07.989Z,99.20
2019-05-28T05:00:36.886Z,99.20
2019-05-28T05:03:05.361Z,99.10
2019-05-28T05:05:33.918Z,99.00
2019-05-28T05:08:02.464Z,99.00
2019-05-28T05:10:31.020Z,99.00
2019-05-28T05:12:59.594Z,98.60
2019-05-28T05:15:28.160Z,98.10
2019-05-28T05:17:57.011Z,98.00
2019-05-28T05:20:25.491Z,97.70
2019-05-28T05:22:53.983Z,97.50
2019-05-28T05:25:23.009Z,97.40
2019-05-28T05:27:51.598Z,97.40
2019-05-28T05:30:20.550Z,97.30
2019-05-28T05:32:49.094Z,97.30
2019-05-28T05:35:18.030Z,97.30
2019-05-28T05:37:46.608Z,97.30
2019-05-28T05:40:15.598Z,97.10
2019-05-28T05:42:44.349Z,96.10
2019-05-28T05:45:13.272Z,95.60
2019-05-28T05:47:41.836Z,96.20
2019-05-28T05:50:10.948Z,96.30
2019-05-28T05:52:39.521Z,96.10
2019-05-28T05:55:08.807Z,95.40
2019-05-28T05:57:37.295Z,95.10
2019-05-28T06:00:11.189Z,95.30
2019-05-28T06:02:37.486Z,95.10
2019-05-28T06:05:06.474Z,94.80
2019-05-28T06:07:34.990Z,94.00
2019-05-28T06:10:05.903Z,95.00
2019-05-28T06:12:34.446Z,94.60
2019-05-28T06:15:03.121Z,94.20
2019-05-28T06:17:31.667Z,94.00
2019-05-28T06:20:00.230Z,94.00
2019-05-28T06:22:28.701Z,93.20
2019-05-28T06:24:57.221Z,93.30
2019-05-28T06:27:25.699Z,93.20
2019-05-28T06:29:54.238Z,93.30
2019-05-28T06:32:22.727Z,93.80
2019-05-28T06:34:51.275Z,93.40
2019-05-28T06:37:19.829Z,93.90
2019-05-28T06:39:48.386Z,93.40
2019-05-28T06:42:17.034Z,92.40
2019-05-28T06:44:45.536Z,92.50
2019-05-28T06:47:14.096Z,92.00
2019-05-28T06:49:42.576Z,93.40
2019-05-28T06:52:11.233Z,92.80
2019-05-28T06:54:40.040Z,92.90
2019-05-28T06:57:22.361Z,92.10
2019-05-28T06:59:38.728Z,92.50
2019-05-28T07:02:07.274Z,91.00
2019-05-28T07:04:35.847Z,91.20
2019-05-28T07:07:04.418Z,90.90
2019-05-28T07:09:32.901Z,90.10
2019-05-28T07:12:01.395Z,90.30
2019-05-28T07:14:29.894Z,89.80
2019-05-28T07:16:58.743Z,90.50
2019-05-28T07:19:27.298Z,89.40
2019-05-28T07:21:56.071Z,88.70
2019-05-28T07:24:24.609Z,90.20
2019-05-28T07:26:53.100Z,88.30
2019-05-28T07:29:21.960Z,90.10
2019-05-28T07:31:50.482Z,88.60
2019-05-28T07:34:30.174Z,89.20
2019-05-28T07:36:49.202Z,88.20
2019-05-28T07:39:17.699Z,88.30
2019-05-28T07:41:46.262Z,87.00
2019-05-28T07:44:14.804Z,86.80
2019-05-28T07:46:43.783Z,87.20
2019-05-28T07:49:12.284Z,87.20
2019-05-28T07:51:40.845Z,86.90
2019-05-28T07:54:09.408Z,87.10
2019-05-28T07:56:37.930Z,88.30
2019-05-28T07:59:06.480Z,86.50
2019-05-28T08:01:34.990Z,87.00
2019-05-28T08:04:03.464Z,86.60
2019-05-28T08:06:32.014Z,86.40
2019-05-28T08:09:00.533Z,86.20
2019-05-28T08:11:29.056Z,85.60
2019-05-28T08:13:57.594Z,86.80
2019-05-28T08:16:26.145Z,85.00
2019-05-28T08:18:55.043Z,85.40
2019-05-28T08:21:23.559Z,86.60
2019-05-28T08:23:52.106Z,86.00
2019-05-28T08:26:20.602Z,87.20
2019-05-28T08:28:49.166Z,87.00
2019-05-28T08:31:21.096Z,88.10
2019-05-28T08:33:47.890Z,87.30
2019-05-28T08:36:16.444Z,86.40
2019-05-28T08:38:44.978Z,86.30
2019-05-28T08:41:13.458Z,86.30
2019-05-28T08:43:41.955Z,84.30
2019-05-28T08:46:10.900Z,85.40
2019-05-28T08:48:39.515Z,84.80
2019-05-28T08:51:10.303Z,86.20
2019-05-28T08:53:38.290Z,85.00
2019-05-28T08:56:06.791Z,84.90
2019-05-28T08:58:35.348Z,83.40
2019-05-28T09:01:03.920Z,82.20
2019-05-28T09:03:32.479Z,83.60
2019-05-28T09:06:01.005Z,82.30
2019-05-28T09:08:39.110Z,83.70
2019-05-28T09:10:59.763Z,82.30
2019-05-28T09:13:28.549Z,82.40
2019-05-28T09:15:57.058Z,81.70
2019-05-28T09:18:25.582Z,82.60
2019-05-28T09:20:54.406Z,81.90
2019-05-28T09:23:22.982Z,81.40
2019-05-28T09:25:51.450Z,81.40
2019-05-28T09:28:30.023Z,80.90
2019-05-28T09:30:50.902Z,81.50
2019-05-28T09:33:19.770Z,81.30
2019-05-28T09:36:06.525Z,80.70
2019-05-28T09:38:18.485Z,81.20
2019-05-28T09:40:50.576Z,80.70
2019-05-28T09:43:17.224Z,79.20
2019-05-28T09:45:45.685Z,78.60
2019-05-28T09:48:14.275Z,78.80
2019-05-28T09:50:43.097Z,80.00
2019-05-28T09:53:11.685Z,79.80
2019-05-28T09:55:40.227Z,80.80
2019-05-28T09:58:09.064Z,80.10
2019-05-28T10:00:54.391Z,81.10
2019-05-28T10:03:08.942Z,78.50
2019-05-28T10:05:37.442Z,79.10
2019-05-28T10:08:06.165Z,79.30
2019-05-28T10:10:34.687Z,78.40
2019-05-28T10:13:03.258Z,78.00
2019-05-28T10:15:32.865Z,77.20
2019-05-28T10:18:01.991Z,76.00
2019-05-28T10:20:30.699Z,77.90
2019-05-28T10:22:59.252Z,75.30
2019-05-28T10:25:28.146Z,75.60
2019-05-28T10:28:01.459Z,74.50
2019-05-28T10:30:27.543Z,73.20
2019-05-28T10:32:56.066Z,75.10
2019-05-28T10:35:25.027Z,75.70
2019-05-28T10:37:53.615Z,75.40
2019-05-28T10:40:22.724Z,74.20
2019-05-28T10:42:51.281Z,74.60
2019-05-28T10:45:20.105Z,75.80
2019-05-28T10:47:48.676Z,74.00
2019-05-28T10:50:18.161Z,73.60
2019-05-28T10:52:46.778Z,73.20
2019-05-28T10:55:16.307Z,72.50
2019-05-28T10:57:45.084Z,73.60
2019-05-28T11:00:14.683Z,74.10
2019-05-28T11:02:43.142Z,74.90
2019-05-28T11:05:13.786Z,74.90
2019-05-28T11:07:42.271Z,74.40
2019-05-28T11:10:23.640Z,72.90
2019-05-28T11:12:42.149Z,72.20
2019-05-28T11:15:12.527Z,73.20
2019-05-28T11:17:41.093Z,71.70
2019-05-28T11:20:11.764Z,70.50
2019-05-28T11:22:40.277Z,68.90
2019-05-28T11:25:10.393Z,69.70
2019-05-28T11:27:39.331Z,71.10
2019-05-28T11:30:13.523Z,71.30
2019-05-28T11:32:42.009Z,71.40
2019-05-28T11:35:11.653Z,65.40
2019-05-28T11:37:40.202Z,67.00
2019-05-28T11:40:10.974Z,67.70
2019-05-28T11:42:40.867Z,66.50
2019-05-28T11:45:11.622Z,67.30
2019-05-28T11:47:41.248Z,67.80
2019-05-28T11:50:11.455Z,68.50
2019-05-28T11:52:40.027Z,69.70
2019-05-28T11:55:12.475Z,68.80
2019-05-28T11:57:41.127Z,68.80
2019-05-28T12:00:10.706Z,71.60
2019-05-28T12:02:39.524Z,70.30
2019-05-28T12:05:09.429Z,69.40
2019-05-28T12:07:50.945Z,70.90
2019-05-28T12:10:18.655Z,72.20
2019-05-28T12:12:47.102Z,73.40
2019-05-28T12:15:17.790Z,72.20
2019-05-28T12:17:46.527Z,70.80
2019-05-28T12:20:17.103Z,71.40
2019-05-28T12:22:45.631Z,69.60
2019-05-28T12:25:16.077Z,66.90
2019-05-28T12:27:44.615Z,68.40
2019-05-28T12:30:20.634Z,67.80
2019-05-28T12:32:49.083Z,64.90
2019-05-28T12:35:28.442Z,66.30
2019-05-28T12:37:50.768Z,66.20
2019-05-28T12:40:20.521Z,66.30
2019-05-28T12:42:48.971Z,65.60
2019-05-28T12:45:33.918Z,66.30
2019-05-28T12:48:07.220Z,66.20
2019-05-28T12:50:20.886Z,64.80
2019-05-28T12:52:49.460Z,64.40
2019-05-28T12:55:20.222Z,65.00
2019-05-28T12:57:48.747Z,66.50
2019-05-28T13:00:19.756Z,62.40
2019-05-28T13:02:49.645Z,63.40
2019-05-28T13:05:21.469Z,61.10
2019-05-28T13:08:06.319Z,61.90
2019-05-28T13:10:20.405Z,61.20
2019-05-28T13:12:48.945Z,61.20
2019-05-28T13:15:18.224Z,59.40
2019-05-28T13:17:46.735Z,59.30
2019-05-28T13:20:16.398Z,59.60
2019-05-28T13:22:45.543Z,60.90
2019-05-28T13:25:14.490Z,59.60
2019-05-28T13:27:43.010Z,60.80
2019-05-28T13:30:13.549Z,59.10
2019-05-28T13:32:43.046Z,59.20
2019-05-28T13:35:14.553Z,59.30
2019-05-28T13:37:43.215Z,59.60
2019-05-28T13:40:13.966Z,60.00
2019-05-28T13:42:42.466Z,58.90
2019-05-28T13:45:11.753Z,59.70
2019-05-28T13:47:40.287Z,60.30
2019-05-28T13:50:10.003Z,59.80
2019-05-28T13:52:38.458Z,61.00
2019-05-28T13:55:08.716Z,59.70
2019-05-28T13:57:39.532Z,59.80
2019-05-28T14:00:10.604Z,61.50
2019-05-28T14:02:39.467Z,60.60
2019-05-28T14:05:09.807Z,59.70
2019-05-28T14:07:38.259Z,59.70
2019-05-28T14:10:07.922Z,59.30
2019-05-28T14:12:36.466Z,59.60
2019-05-28T14:15:08.704Z,61.00
2019-05-28T14:17:37.410Z,62.40
2019-05-28T14:20:07.297Z,63.80
2019-05-28T14:22:37.240Z,64.50
2019-05-28T14:25:08.271Z,64.30
2019-05-28T14:27:36.790Z,64.20
2019-05-28T14:30:11.282Z,66.60
2019-05-28T14:32:39.747Z,68.00
2019-05-28T14:35:08.631Z,69.20
2019-05-28T14:37:37.165Z,72.50
2019-05-28T14:40:08.515Z,73.90
2019-05-28T14:42:37.051Z,75.50
2019-05-28T14:45:09.323Z,75.10
2019-05-28T14:47:38.641Z,76.70
2019-05-28T14:50:12.197Z,75.40
2019-05-28T14:52:40.738Z,74.60
2019-05-28T14:55:10.202Z,74.00
2019-05-28T14:57:39.180Z,73.90
2019-05-28T15:00:09.744Z,70.20
2019-05-28T15:02:38.519Z,67.40
2019-05-28T15:05:08.389Z,69.50
2019-05-28T15:07:36.927Z,68.70
2019-05-28T15:10:10.034Z,67.20
2019-05-28T15:12:38.547Z,66.70
2019-05-28T15:15:10.082Z,66.50
2019-05-28T15:17:38.877Z,62.50
2019-05-28T15:20:09.308Z,62.20
2019-05-28T15:22:38.152Z,61.40
2019-05-28T15:25:09.859Z,60.60
2019-05-28T15:27:38.589Z,58.60
2019-05-28T15:30:09.063Z,61.10
2019-05-28T15:32:37.701Z,63.40
2019-05-28T15:35:08.039Z,63.90
2019-05-28T15:37:36.577Z,62.50
2019-05-28T15:40:52.394Z,60.90
2019-05-28T15:43:21.826Z,59.40
2019-05-28T15:45:50.269Z,59.00
2019-05-28T15:48:18.726Z,57.00
2019-05-28T15:50:47.198Z,57.40
2019-05-28T15:53:15.717Z,57.40
2019-05-28T15:55:44.157Z,55.40
2019-05-28T15:58:13.053Z,56.90
2019-05-28T16:00:42.270Z,57.50
2019-05-28T16:03:10.842Z,59.20
2019-05-28T16:05:39.332Z,60.70
2019-05-28T16:08:07.783Z,60.90
2019-05-28T16:10:36.606Z,58.80
2019-05-28T16:13:05.397Z,58.60
2019-05-28T16:15:33.922Z,53.30
2019-05-28T16:18:02.383Z,52.00
2019-05-28T16:20:30.853Z,54.10
2019-05-28T16:22:59.385Z,56.30
2019-05-28T16:25:29.510Z,57.00
2019-05-28T16:27:58.017Z,55.50
2019-05-28T16:30:26.470Z,55.10
2019-05-28T16:32:54.922Z,53.80
2019-05-28T16:35:23.386Z,53.60
2019-05-28T16:37:51.925Z,55.60
2019-05-28T16:40:21.707Z,53.40
2019-05-28T16:42:50.170Z,52.00
2019-05-28T16:45:21.626Z,53.60
2019-05-28T16:47:50.154Z,53.20
2019-05-28T16:50:19.242Z,54.30
2019-05-28T16:52:47.769Z,51.30
2019-05-28T16:55:16.551Z,52.40
2019-05-28T16:57:58.837Z,53.20
2019-05-28T17:00:27.964Z,54.80
2019-05-28T17:02:59.313Z,56.60
2019-05-28T17:05:27.832Z,56.80
2019-05-28T17:07:56.286Z,56.50
2019-05-28T17:10:32.992Z,58.70
2019-05-28T17:12:55.248Z,58.90
2019-05-28T17:15:24.203Z,61.30
2019-05-28T17:17:52.707Z,61.20
2019-05-28T17:20:21.533Z,61.40
2019-05-28T17:22:50.068Z,60.50
2019-05-28T17:25:18.832Z,60.60
2019-05-28T17:27:47.350Z,59.40
2019-05-28T17:30:22.399Z,60.90
2019-05-28T17:32:46.672Z,59.90
2019-05-28T17:35:15.407Z,59.80
2019-05-28T17:37:43.939Z,61.70
2019-05-28T17:40:12.994Z,61.00
2019-05-28T17:42:41.454Z,62.70
2019-05-28T17:45:10.858Z,62.80
2019-05-28T17:47:43.817Z,63.50
2019-05-28T17:50:10.567Z,65.10
2019-05-28T17:52:39.090Z,65.00
2019-05-28T17:55:08.034Z,64.80
2019-05-28T17:57:36.504Z,66.00
2019-05-28T18:00:06.958Z,66.20
2019-05-28T18:02:36.247Z,64.50
2019-05-28T18:05:06.874Z,65.20
2019-05-28T18:07:35.607Z,64.80
2019-05-28T18:10:10.324Z,64.60
2019-05-28T18:12:38.785Z,65.50
2019-05-28T18:15:08.707Z,66.20
2019-05-28T18:17:37.175Z,66.40
2019-05-28T18:20:07.248Z,66.50
2019-05-28T18:22:36.096Z,66.90
2019-05-28T18:25:06.560Z,67.10
2019-05-28T18:27:35.023Z,67.20
2019-05-28T18:30:06.009Z,67.40
2019-05-28T18:32:34.461Z,67.80
2019-05-28T18:35:03.087Z,68.20
2019-05-28T18:37:36.342Z,68.80
2019-05-28T18:40:07.198Z,69.20
2019-05-28T18:42:36.007Z,69.20
2019-05-28T18:45:05.799Z,69.50
2019-05-28T18:47:34.338Z,70.10
2019-05-28T18:50:04.115Z,70.70
2019-05-28T18:52:32.573Z,70.80
2019-05-28T18:55:01.025Z,71.20
2019-05-28T18:57:29.570Z,71.40
2019-05-28T18:59:59.280Z,72.20
2019-05-28T19:02:27.765Z,72.70
2019-05-28T19:04:56.490Z,72.00
2019-05-28T19:07:24.941Z,72.70
2019-05-28T19:09:53.473Z,73.20
2019-05-28T19:12:21.913Z,73.40
2019-05-28T19:14:50.375Z,73.60
2019-05-28T19:17:18.825Z,73.80
2019-05-28T19:19:47.295Z,73.60
2019-05-28T19:22:21.813Z,73.70
2019-05-28T19:24:50.722Z,74.10
2019-05-28T19:27:19.221Z,73.80
2019-05-28T19:29:50.665Z,73.90
2019-05-28T19:32:18.093Z,74.00
2019-05-28T19:34:48.714Z,73.80
2019-05-28T19:37:16.949Z,74.00
2019-05-28T19:39:45.615Z,74.10
2019-05-28T19:42:14.026Z,74.20
2019-05-28T19:44:42.443Z,74.50
2019-05-28T19:47:11.369Z,75.10
2019-05-28T19:49:39.835Z,75.60
2019-05-28T19:52:08.303Z,76.20
2019-05-28T19:54:36.822Z,76.50
2019-05-28T19:57:05.936Z,76.90
2019-05-28T19:59:34.353Z,77.30
2019-05-28T20:02:03.100Z,77.40
2019-05-28T20:04:31.777Z,78.10
2019-05-28T20:07:00.212Z,78.40
2019-05-28T20:09:29.039Z,77.70
2019-05-28T20:12:11.649Z,78.50
2019-05-28T20:14:27.581Z,78.60
2019-05-28T20:16:57.393Z,78.90
2019-05-28T20:19:26.102Z,78.90
2019-05-28T20:21:55.759Z,79.20
2019-05-28T20:24:24.887Z,79.30
2019-05-28T20:26:53.919Z,79.50
2019-05-28T20:29:22.588Z,79.70
2019-05-28T20:31:50.993Z,79.80
2019-05-28T20:34:19.425Z,80.00
2019-05-28T20:36:47.831Z,80.20
2019-05-28T20:39:16.283Z,80.50
2019-05-28T20:41:46.259Z,80.70
2019-05-28T20:44:15.036Z,81.00
2019-05-28T20:46:43.438Z,81.20
2019-05-28T20:49:11.864Z,81.50
2019-05-28T20:51:40.290Z,82.00
2019-05-28T20:54:08.697Z,82.10
2019-05-28T20:56:37.133Z,82.40
2019-05-28T20:59:05.922Z,82.70
2019-05-28T21:01:34.338Z,82.90
2019-05-28T21:04:02.744Z,82.90
2019-05-28T21:06:31.174Z,83.40
2019-05-28T21:08:59.937Z,83.40
2019-05-28T21:11:28.721Z,83.10
2019-05-28T21:13:58.829Z,83.10
2019-05-28T21:16:27.516Z,82.90
2019-05-28T21:18:55.923Z,82.90
2019-05-28T21:21:24.683Z,83.10
2019-05-28T21:23:53.711Z,83.40
2019-05-28T21:26:33.258Z,83.60
2019-05-28T21:29:01.663Z,83.90
2019-05-28T21:31:30.099Z,83.80
2019-05-28T21:33:59.077Z,83.70
2019-05-28T21:36:28.164Z,83.90
2019-05-28T21:38:57.407Z,84.00
2019-05-28T21:41:26.159Z,84.20
2019-05-28T21:43:55.845Z,84.20
2019-05-28T21:46:24.387Z,84.20
2019-05-28T21:48:53.148Z,84.20
2019-05-28T21:51:21.706Z,84.40
2019-05-28T21:53:50.150Z,84.50
2019-05-28T21:56:18.566Z,84.60
2019-05-28T21:58:46.969Z,85.70
2019-05-28T22:01:21.373Z,85.80
2019-05-28T22:03:49.906Z,85.70
2019-05-28T22:06:18.327Z,85.40
2019-05-28T22:08:46.733Z,85.60
2019-05-28T22:11:15.163Z,85.50
2019-05-28T22:13:43.586Z,85.50
2019-05-28T22:16:12.008Z,85.50
2019-05-28T22:18:40.410Z,85.70
2019-05-28T22:21:08.851Z,85.60
2019-05-28T22:23:37.247Z,85.60
2019-05-28T22:26:05.659Z,85.80
2019-05-28T22:28:34.427Z,86.00
2019-05-28T22:31:03.844Z,86.40
2019-05-28T22:33:33.105Z,86.40
2019-05-28T22:36:01.527Z,86.50
2019-05-28T22:38:29.935Z,86.90
2019-05-28T22:40:58.386Z,86.90
2019-05-28T22:43:31.484Z,87.10
2019-05-28T22:45:57.027Z,87.00
2019-05-28T22:48:25.439Z,86.80
2019-05-28T22:50:53.841Z,87.00
2019-05-28T22:53:22.311Z,87.10
2019-05-28T22:55:50.718Z,87.00
2019-05-28T22:58:19.136Z,87.10
2019-05-28T23:00:47.938Z,88.40
2019-05-28T23:03:16.347Z,88.60
2019-05-28T23:05:44.758Z,89.40
2019-05-28T23:08:13.184Z,89.50
2019-05-28T23:10:41.587Z,89.20
2019-05-28T23:13:11.124Z,89.10
2019-05-28T23:15:39.890Z,88.80
2019-05-28T23:18:09.252Z,88.80
2019-05-28T23:20:38.299Z,88.70
2019-05-28T23:23:07.281Z,88.60
2019-05-28T23:25:36.012Z,88.60
2019-05-28T23:28:05.464Z,88.50
2019-05-28T23:30:34.036Z,88.50
2019-05-28T23:33:02.465Z,88.50
2019-05-28T23:35:31.263Z,88.80
2019-05-28T23:37:59.683Z,89.30
2019-05-28T23:40:28.100Z,89.20
2019-05-28T23:42:56.518Z,88.50
2019-05-28T23:45:24.937Z,88.20
2019-05-28T23:47:53.358Z,88.20
2019-05-28T23:50:22.140Z,88.20
2019-05-28T23:52:50.559Z,88.00
2019-05-28T23:55:18.969Z,87.40
2019-05-28T23:57:47.396Z,86.50
